Startpagina
METAR-TAF:

METAR-TAF

Vliegvelden :

Caracas, Venezuela

Aeropuerto Internacional de Maiquetía Simón Bolívar

breedte: 10-36N, lengte: 066-59W, hoogte: 43 m

Actueel weer

Dit bericht is 15 minuten geleden gemaakt, om 21:00 UTC
Wind 5 kt uit het westen
Temperatuur 30°C
Vochtigheid 62%
Druk 1008 hPa
Zicht 10 km of meer
Verspreide wolken op 1600 ft

METAR: SVMI 242100Z 27005KT 9999 SCT016 30/22 Q1008

Tijdstip: 17:15 (21:15 UTC)

Verwachting

Dit bericht is 5 uur en het 15 minuten geleden gemaakt, om 16:00 UTC
Verwachting geldig van 24 om 18 UTC tot 25 om 18 UTC
Wind 5 kt uit het noordoosten
Zicht 10 km of meer
Verspreide wolken op 1300 ft
Wijzigt naar
van 24 om 18 UTC tot 24 om 22 UTC
Wind 12 kt uit het noordoosten
Weinig wolken op 2000 ft

TAF: SVMI 241600Z 2418/2518 05005KT 9999 SCT013 TX34/18Z TN25/09Z BECMG 2418/2422 05012KT FEW020

Waarnemingen en weersverwachtingen van meer dan 4000 vliegvelden (METAR en TAF).

De beschikbare stations zijn de gele en rode punten op de kaart.

Ga met uw muis naar het station om de naam te zien.

Klik dan om waarnemingen en weersverwachtingen te zien.

kaart wijzigen: klik op de groene knoppen met een zwart kruis om in te zoomen, op de groene knop met een streepje om uit te zoomen of op de groene pijlen voor aangrenzende kaarten.


METAR-TAF: